createdAt,value
2019-03-21T00:02:01.557Z,8.00
2019-03-21T00:04:45.582Z,8.38
2019-03-21T00:07:37.477Z,8.63
2019-03-21T00:11:09.779Z,7.97
2019-03-21T00:14:07.189Z,7.70
2019-03-21T00:16:39.871Z,8.78
2019-03-21T00:19:13.217Z,8.48
2019-03-21T00:21:57.900Z,10.20
2019-03-21T00:24:49.500Z,8.78
2019-03-21T00:27:22.318Z,9.88
2019-03-21T00:30:18.004Z,8.88
2019-03-21T00:33:02.947Z,9.90
2019-03-21T00:35:54.558Z,9.38
2019-03-21T00:38:38.501Z,8.48
2019-03-21T00:41:30.179Z,8.03
2019-03-21T00:44:18.424Z,8.23
2019-03-21T00:46:59.779Z,7.55
2019-03-21T00:49:51.435Z,6.90
2019-03-21T00:52:24.138Z,7.87
2019-03-21T00:54:56.998Z,8.08
2019-03-21T00:57:50.349Z,7.20
2019-03-21T01:00:36.259Z,8.03
2019-03-21T01:03:09.764Z,7.60
2019-03-21T01:05:53.501Z,6.95
2019-03-21T01:08:38.425Z,7.55
2019-03-21T01:11:22.047Z,8.15
2019-03-21T01:14:13.780Z,7.75
2019-03-21T01:16:58.456Z,6.45
2019-03-21T01:19:49.982Z,6.87
2019-03-21T01:22:33.686Z,6.65
2019-03-21T01:25:28.980Z,7.35
2019-03-21T01:28:12.629Z,7.30
2019-03-21T01:31:04.282Z,7.58
2019-03-21T01:33:37.184Z,7.28
2019-03-21T01:36:28.657Z,7.60
2019-03-21T01:39:11.457Z,7.70
2019-03-21T01:42:03.013Z,7.72
2019-03-21T01:44:47.791Z,6.80
2019-03-21T01:47:39.454Z,6.78
2019-03-21T01:50:24.156Z,7.40
2019-03-21T01:53:08.557Z,6.90
2019-03-21T01:55:52.346Z,6.80
2019-03-21T01:58:43.963Z,6.35
2019-03-21T02:01:16.623Z,6.50
2019-03-21T02:04:01.660Z,6.42
2019-03-21T02:06:34.678Z,6.50
2019-03-21T02:09:11.101Z,7.10
2019-03-21T02:11:57.491Z,7.60
2019-03-21T02:14:52.424Z,6.50
2019-03-21T02:17:40.947Z,7.35
2019-03-21T02:20:15.755Z,7.30
2019-03-21T02:23:01.130Z,6.92
2019-03-21T02:25:54.953Z,7.40
2019-03-21T02:28:39.447Z,6.47
2019-03-21T02:31:23.566Z,6.80
2019-03-21T02:34:15.127Z,6.70
2019-03-21T02:36:58.699Z,6.83
2019-03-21T02:39:59.329Z,7.25
2019-03-21T02:42:41.674Z,7.20
2019-03-21T02:45:33.161Z,8.10
2019-03-21T02:48:18.108Z,6.90
2019-03-21T02:51:09.675Z,7.15
2019-03-21T02:53:53.794Z,7.45
2019-03-21T02:56:46.080Z,7.35
2019-03-21T02:59:18.926Z,7.40
2019-03-21T03:02:03.806Z,7.20
2019-03-21T03:04:47.903Z,6.40
2019-03-21T03:07:39.542Z,7.00
2019-03-21T03:10:28.191Z,7.17
2019-03-21T03:13:19.711Z,8.45
2019-03-21T03:16:04.126Z,7.08
2019-03-21T03:18:48.427Z,7.65
2019-03-21T03:21:39.991Z,6.10
2019-03-21T03:24:25.100Z,6.65
2019-03-21T03:27:16.864Z,7.50
2019-03-21T03:30:01.363Z,7.60
2019-03-21T03:32:53.247Z,6.67
2019-03-21T03:35:37.236Z,7.70
2019-03-21T03:38:28.837Z,6.70
2019-03-21T03:41:02.210Z,6.70
2019-03-21T03:43:34.955Z,7.50
2019-03-21T03:46:20.650Z,7.08
2019-03-21T03:49:05.475Z,6.87
2019-03-21T03:51:50.201Z,7.50
2019-03-21T03:54:34.518Z,7.20
2019-03-21T03:57:26.310Z,7.28
2019-03-21T04:00:11.706Z,6.90
2019-03-21T04:02:55.716Z,7.85
2019-03-21T04:05:40.223Z,7.50
2019-03-21T04:08:31.898Z,7.37
2019-03-21T04:11:15.551Z,7.42
2019-03-21T04:13:59.881Z,7.83
2019-03-21T04:16:51.636Z,7.42
2019-03-21T04:19:35.720Z,7.15
2019-03-21T04:22:17.513Z,6.87
2019-03-21T04:25:10.512Z,6.70
2019-03-21T04:27:54.884Z,7.17
2019-03-21T04:30:47.678Z,7.45
2019-03-21T04:33:31.800Z,6.25
2019-03-21T04:36:23.519Z,5.50
2019-03-21T04:39:08.017Z,7.58
2019-03-21T04:41:59.615Z,7.65
2019-03-21T04:44:44.608Z,8.95
2019-03-21T04:47:36.186Z,7.33
2019-03-21T04:50:21.554Z,6.40
2019-03-21T04:56:19.403Z,6.90
2019-03-21T04:58:52.272Z,7.17
2019-03-21T05:01:36.890Z,20.82
2019-03-21T05:04:28.592Z,12.00
2019-03-21T05:07:12.892Z,8.03
2019-03-21T05:10:04.994Z,7.33
2019-03-21T05:12:50.338Z,10.90
2019-03-21T05:15:35.233Z,9.03
2019-03-21T05:18:30.455Z,8.23
2019-03-21T05:21:14.535Z,9.33
2019-03-21T05:24:19.751Z,8.18
2019-03-21T05:26:58.579Z,9.98
2019-03-21T05:29:50.323Z,9.20
2019-03-21T05:32:35.494Z,9.00
2019-03-21T05:35:27.735Z,9.40
2019-03-21T05:38:12.036Z,10.00
2019-03-21T05:41:03.954Z,9.20
2019-03-21T05:43:52.523Z,9.95
2019-03-21T05:46:44.404Z,9.43
2019-03-21T05:49:17.245Z,9.93
2019-03-21T05:52:10.499Z,8.80
2019-03-21T05:54:54.251Z,8.13
2019-03-21T05:57:46.022Z,8.63
2019-03-21T06:03:58.434Z,7.55
2019-03-21T06:06:47.748Z,9.18
2019-03-21T06:09:31.698Z,9.05
2019-03-21T06:12:15.782Z,8.40
2019-03-21T06:15:00.576Z,8.60
2019-03-21T06:18:14.784Z,7.80
2019-03-21T06:21:19.761Z,8.85
2019-03-21T06:24:35.946Z,8.98
2019-03-21T06:27:30.733Z,8.28
2019-03-21T06:30:03.518Z,7.28
2019-03-21T06:32:49.337Z,7.67
2019-03-21T06:35:40.985Z,9.65
2019-03-21T06:38:24.821Z,9.50
2019-03-21T06:41:08.426Z,7.53
2019-03-21T06:44:00.328Z,8.90
2019-03-21T06:46:49.495Z,9.05
2019-03-21T06:49:37.811Z,9.55
2019-03-21T06:52:22.104Z,9.38
2019-03-21T06:55:13.786Z,8.58
2019-03-21T06:57:57.701Z,9.25
2019-03-21T07:00:49.397Z,9.73
2019-03-21T07:03:37.482Z,9.80
2019-03-21T07:06:29.104Z,9.25
2019-03-21T07:09:12.825Z,9.05
2019-03-21T07:12:04.451Z,8.08
2019-03-21T07:14:48.131Z,9.13
2019-03-21T07:17:22.848Z,7.62
2019-03-21T07:20:25.982Z,7.40
2019-03-21T07:23:17.789Z,7.35
2019-03-21T07:26:00.330Z,7.70
2019-03-21T07:28:52.023Z,8.85
2019-03-21T07:31:36.798Z,9.08
2019-03-21T07:34:28.435Z,6.60
2019-03-21T07:37:12.213Z,8.68
2019-03-21T07:40:04.032Z,8.43
2019-03-21T07:42:47.955Z,8.20
2019-03-21T07:45:39.640Z,7.67
2019-03-21T07:48:23.745Z,7.10
2019-03-21T07:51:15.265Z,7.17
2019-03-21T07:53:58.897Z,7.95
2019-03-21T07:56:50.499Z,6.85
2019-03-21T07:59:34.072Z,7.58
2019-03-21T08:02:25.825Z,6.92
2019-03-21T08:05:10.286Z,7.35
2019-03-21T08:07:54.322Z,7.37
2019-03-21T08:10:46.407Z,7.28
2019-03-21T08:13:30.694Z,7.30
2019-03-21T08:16:14.507Z,7.50
2019-03-21T08:19:06.117Z,6.65
2019-03-21T08:21:50.037Z,6.87
2019-03-21T08:24:34.141Z,6.60
2019-03-21T08:27:25.665Z,6.30
2019-03-21T08:30:13.282Z,7.12
2019-03-21T08:33:05.251Z,6.35
2019-03-21T08:35:49.266Z,5.80
2019-03-21T08:38:40.966Z,6.87
2019-03-21T08:41:26.166Z,6.20
2019-03-21T08:44:17.808Z,6.05
2019-03-21T08:47:02.305Z,6.35
2019-03-21T08:49:54.141Z,6.97
2019-03-21T08:52:26.890Z,5.78
2019-03-21T08:55:18.657Z,6.53
2019-03-21T08:57:51.459Z,6.40
2019-03-21T09:00:33.714Z,5.42
2019-03-21T09:03:11.130Z,6.00
2019-03-21T09:05:54.747Z,5.53
2019-03-21T09:08:46.362Z,5.58
2019-03-21T09:11:38.034Z,5.60
2019-03-21T09:14:21.618Z,5.40
2019-03-21T09:17:13.240Z,5.47
2019-03-21T09:19:57.355Z,5.35
2019-03-21T09:22:48.956Z,5.78
2019-03-21T09:25:32.776Z,6.03
2019-03-21T09:28:24.350Z,5.85
2019-03-21T09:31:08.458Z,6.15
2019-03-21T09:34:00.124Z,6.00
2019-03-21T09:36:44.522Z,6.17
2019-03-21T09:39:36.259Z,5.42
2019-03-21T09:42:20.215Z,5.28
2019-03-21T09:45:11.764Z,6.65
2019-03-21T09:47:55.615Z,6.17
2019-03-21T09:50:47.367Z,6.85
2019-03-21T09:53:32.617Z,5.78
2019-03-21T09:56:24.350Z,7.00
2019-03-21T09:59:08.906Z,6.33
2019-03-21T10:02:00.512Z,6.87
2019-03-21T10:04:45.205Z,6.60
2019-03-21T10:07:36.800Z,6.22
2019-03-21T10:10:26.060Z,8.03
2019-03-21T10:13:17.689Z,6.83
2019-03-21T10:16:01.423Z,6.12
2019-03-21T10:18:53.014Z,5.25
2019-03-21T10:21:43.358Z,6.80
2019-03-21T10:24:30.426Z,7.62
2019-03-21T10:27:14.188Z,7.08
2019-03-21T10:30:06.909Z,5.30
2019-03-21T10:32:50.699Z,5.95
2019-03-21T10:35:42.498Z,5.25
2019-03-21T10:38:26.828Z,5.20
2019-03-21T10:41:18.581Z,6.50
2019-03-21T10:44:01.188Z,6.33
2019-03-21T10:46:52.867Z,5.83
2019-03-21T10:49:37.077Z,5.45
2019-03-21T10:52:28.602Z,5.40
2019-03-21T10:55:14.897Z,5.55
2019-03-21T11:01:30.797Z,5.90
2019-03-21T11:04:15.269Z,4.80
2019-03-21T11:07:02.621Z,5.97
2019-03-21T11:09:54.271Z,5.85
2019-03-21T11:12:38.827Z,5.85
2019-03-21T11:15:31.122Z,6.17
2019-03-21T11:18:14.860Z,6.40
2019-03-21T11:21:06.491Z,4.87
2019-03-21T11:23:50.712Z,5.08
2019-03-21T11:26:42.528Z,5.28
2019-03-21T11:29:26.880Z,4.97
2019-03-21T11:32:18.829Z,4.75
2019-03-21T11:35:03.460Z,4.65
2019-03-21T11:37:55.330Z,5.17
2019-03-21T11:40:40.164Z,5.15
2019-03-21T11:43:24.891Z,4.70
2019-03-21T11:46:16.645Z,4.87
2019-03-21T11:49:00.940Z,4.40
2019-03-21T11:51:52.578Z,4.43
2019-03-21T11:54:36.602Z,6.05
2019-03-21T11:57:28.384Z,5.00
2019-03-21T12:00:13.425Z,4.83
2019-03-21T12:03:25.500Z,4.42
2019-03-21T12:06:08.333Z,4.72
2019-03-21T12:08:59.993Z,4.28
2019-03-21T12:11:44.994Z,4.58
2019-03-21T12:14:38.263Z,4.20
2019-03-21T12:17:22.751Z,4.78
2019-03-21T12:20:14.561Z,4.10
2019-03-21T12:23:01.476Z,4.92
2019-03-21T12:25:53.081Z,4.37
2019-03-21T12:28:25.917Z,4.67
2019-03-21T12:31:20.704Z,3.92
2019-03-21T12:34:04.939Z,4.33
2019-03-21T12:36:59.420Z,4.10
2019-03-21T12:39:43.484Z,4.15
2019-03-21T12:42:35.380Z,3.90
2019-03-21T12:45:19.860Z,4.47
2019-03-21T12:48:07.193Z,5.28
2019-03-21T12:51:00.632Z,4.58
2019-03-21T12:53:33.799Z,5.22
2019-03-21T12:56:25.417Z,4.97
2019-03-21T12:59:09.854Z,4.90
2019-03-21T13:02:01.542Z,4.60
2019-03-21T13:04:45.851Z,4.20
2019-03-21T13:07:37.520Z,4.15
2019-03-21T13:10:21.922Z,3.90
2019-03-21T13:12:54.902Z,4.37
2019-03-21T13:15:46.683Z,4.45
2019-03-21T13:18:31.062Z,4.45
2019-03-21T13:21:22.796Z,4.35
2019-03-21T13:24:06.789Z,4.33
2019-03-21T13:27:00.211Z,3.95
2019-03-21T13:30:03.782Z,4.05
2019-03-21T13:32:48.677Z,4.60
2019-03-21T13:35:33.300Z,4.40
2019-03-21T13:38:24.816Z,3.75
2019-03-21T13:41:08.844Z,4.45
2019-03-21T13:43:53.361Z,4.90
2019-03-21T13:46:37.492Z,4.97
2019-03-21T13:49:29.330Z,4.53
2019-03-21T13:52:14.658Z,4.00
2019-03-21T13:55:06.468Z,5.30
2019-03-21T13:57:49.300Z,4.42
2019-03-21T14:00:41.316Z,4.67
2019-03-21T14:03:26.019Z,4.95
2019-03-21T14:06:18.131Z,3.75
2019-03-21T14:09:00.721Z,4.58
2019-03-21T14:11:45.948Z,3.65
2019-03-21T14:14:37.592Z,5.87
2019-03-21T14:17:21.325Z,3.90
2019-03-21T14:20:22.792Z,3.98
2019-03-21T14:23:17.298Z,4.67
2019-03-21T14:26:02.741Z,4.58
2019-03-21T14:28:54.527Z,4.30
2019-03-21T14:31:37.733Z,4.08
2019-03-21T14:34:21.493Z,4.40
2019-03-21T14:37:13.510Z,4.10
2019-03-21T14:39:57.711Z,4.25
2019-03-21T14:42:49.950Z,4.47
2019-03-21T14:45:34.140Z,5.20
2019-03-21T14:48:17.959Z,3.40
2019-03-21T14:51:10.105Z,4.05
2019-03-21T14:53:54.250Z,4.40
2019-03-21T14:56:46.170Z,5.15
2019-03-21T14:59:31.551Z,4.20
2019-03-21T15:02:23.214Z,5.20
2019-03-21T15:05:08.923Z,4.40
2019-03-21T15:07:53.650Z,4.87
2019-03-21T15:10:26.515Z,4.72
2019-03-21T15:13:13.169Z,4.58
2019-03-21T15:16:24.795Z,4.60
2019-03-21T15:18:58.210Z,5.42
2019-03-21T15:24:53.287Z,5.30
2019-03-21T15:27:37.810Z,5.70
2019-03-21T15:30:29.472Z,5.35
2019-03-21T15:33:13.757Z,5.40
2019-03-21T15:36:05.589Z,5.62
2019-03-21T15:38:50.037Z,5.10
2019-03-21T15:42:00.002Z,5.17
2019-03-21T15:45:10.254Z,5.08
2019-03-21T15:47:47.571Z,4.87
2019-03-21T15:50:38.083Z,5.92
2019-03-21T15:53:36.251Z,4.62
2019-03-21T15:56:19.327Z,5.22
2019-03-21T15:59:04.732Z,5.00
2019-03-21T16:02:32.689Z,5.53
2019-03-21T16:11:25.245Z,4.83
2019-03-21T16:14:08.833Z,4.83
2019-03-21T16:17:00.734Z,4.95
2019-03-21T16:19:45.175Z,4.42
2019-03-21T16:22:37.444Z,4.78
2019-03-21T16:25:21.260Z,4.35
2019-03-21T16:28:13.067Z,5.70
2019-03-21T16:30:57.395Z,4.10
2019-03-21T16:33:49.131Z,3.92
2019-03-21T16:36:33.534Z,4.62
2019-03-21T16:39:25.263Z,4.60
2019-03-21T16:42:09.835Z,4.33
2019-03-21T16:45:01.865Z,4.15
2019-03-21T16:47:45.845Z,4.10
2019-03-21T16:50:38.829Z,5.22
2019-03-21T16:53:23.286Z,5.10
2019-03-21T16:56:14.884Z,4.25
2019-03-21T16:58:59.759Z,4.37
2019-03-21T17:01:44.278Z,4.25
2019-03-21T17:04:36.092Z,4.28
2019-03-21T17:07:20.352Z,4.78
2019-03-21T17:10:12.244Z,4.15
2019-03-21T17:12:57.499Z,4.05
2019-03-21T17:15:49.197Z,5.10
2019-03-21T17:18:33.777Z,5.30
2019-03-21T17:24:47.129Z,6.80
2019-03-21T17:27:31.749Z,3.92
2019-03-21T17:30:35.172Z,4.37
2019-03-21T17:33:27.052Z,4.70
2019-03-21T17:36:00.067Z,4.33
2019-03-21T17:38:52.084Z,4.22
2019-03-21T17:41:35.967Z,5.22
2019-03-21T17:44:08.956Z,3.45
2019-03-21T17:46:53.257Z,4.37
2019-03-21T17:49:44.111Z,4.03
2019-03-21T17:52:30.242Z,4.75
2019-03-21T17:55:14.216Z,4.20
2019-03-21T17:58:06.152Z,4.67
2019-03-21T18:00:50.404Z,4.00
2019-03-21T18:03:44.684Z,4.42
2019-03-21T18:06:29.236Z,4.20
2019-03-21T18:09:15.474Z,4.47
2019-03-21T18:11:58.928Z,5.00
2019-03-21T18:15:11.085Z,4.85
2019-03-21T18:17:52.844Z,4.03
2019-03-21T18:20:42.412Z,3.80
2019-03-21T18:23:30.733Z,4.57
2019-03-21T18:26:13.307Z,5.37
2019-03-21T18:28:56.340Z,6.45
2019-03-21T18:31:31.813Z,5.50
2019-03-21T18:37:24.671Z,6.20
2019-03-21T18:40:00.660Z,5.87
2019-03-21T18:45:45.349Z,7.90
2019-03-21T18:48:54.009Z,7.95
2019-03-21T18:52:00.365Z,6.35
2019-03-21T18:58:20.014Z,5.50
2019-03-21T19:04:31.390Z,4.70
2019-03-21T19:07:13.983Z,5.37
2019-03-21T19:13:09.975Z,5.40
2019-03-21T19:16:01.809Z,7.50
2019-03-21T19:18:46.360Z,7.20
2019-03-21T19:21:34.249Z,6.10
2019-03-21T19:24:26.047Z,5.87
2019-03-21T19:27:10.397Z,5.53
2019-03-21T19:30:14.540Z,6.05
2019-03-21T19:33:07.068Z,7.10
2019-03-21T19:42:27.451Z,7.40
2019-03-21T19:45:13.509Z,7.78
2019-03-21T19:48:08.294Z,8.08
2019-03-21T19:50:53.844Z,8.18
2019-03-21T19:53:45.764Z,7.10
2019-03-21T19:56:30.481Z,8.25
2019-03-21T19:59:16.136Z,8.23
2019-03-21T20:02:27.205Z,8.25
2019-03-21T20:05:10.955Z,7.97
2019-03-21T20:07:55.480Z,8.00
2019-03-21T20:10:40.227Z,9.20
2019-03-21T20:13:31.971Z,8.75
2019-03-21T20:16:16.894Z,9.78
2019-03-21T20:19:11.884Z,10.10
2019-03-21T20:22:06.921Z,9.45
2019-03-21T20:24:58.776Z,8.80
2019-03-21T20:27:44.971Z,9.60
2019-03-21T20:30:36.693Z,10.13
2019-03-21T20:33:20.473Z,8.93
2019-03-21T20:36:12.327Z,7.90
2019-03-21T20:38:56.615Z,9.75
2019-03-21T20:41:48.538Z,7.47
2019-03-21T20:44:35.179Z,7.95
2019-03-21T20:47:27.215Z,9.73
2019-03-21T20:50:11.906Z,9.70
2019-03-21T20:52:44.858Z,9.35
2019-03-21T20:55:28.575Z,9.50
2019-03-21T20:58:21.851Z,9.03
2019-03-21T21:01:06.516Z,9.73
2019-03-21T21:03:58.234Z,9.25
2019-03-21T21:06:42.351Z,8.95
2019-03-21T21:09:29.063Z,9.70
2019-03-21T21:15:34.715Z,9.55
2019-03-21T21:18:26.260Z,9.68
2019-03-21T21:21:09.981Z,9.45
2019-03-21T21:24:01.778Z,9.55
2019-03-21T21:26:46.186Z,10.78
2019-03-21T21:29:37.841Z,10.25
2019-03-21T21:32:21.568Z,9.13
2019-03-21T21:35:13.566Z,9.25
2019-03-21T21:37:57.265Z,11.05
2019-03-21T21:40:48.871Z,9.95
2019-03-21T21:43:35.678Z,11.28
2019-03-21T21:46:27.406Z,11.10
2019-03-21T21:49:13.280Z,11.12
2019-03-21T21:52:04.974Z,12.53
2019-03-21T21:54:49.317Z,12.40
2019-03-21T21:57:41.127Z,11.85
2019-03-21T22:00:25.275Z,11.12
2019-03-21T22:03:17.111Z,10.08
2019-03-21T22:06:01.473Z,12.93
2019-03-21T22:09:04.560Z,12.78
2019-03-21T22:11:49.009Z,12.13
2019-03-21T22:14:32.636Z,12.30
2019-03-21T22:17:24.268Z,12.33
2019-03-21T22:20:08.312Z,11.80
2019-03-21T22:22:52.430Z,13.32
2019-03-21T22:28:47.441Z,13.20
2019-03-21T22:31:31.703Z,12.88
2019-03-21T22:34:23.426Z,11.10
2019-03-21T22:37:07.743Z,10.90
2019-03-21T22:39:51.809Z,12.75
2019-03-21T22:42:36.343Z,11.78
2019-03-21T22:45:28.154Z,11.75
2019-03-21T22:48:12.492Z,12.18
2019-03-21T22:54:07.598Z,10.40
2019-03-21T22:56:52.880Z,10.40
2019-03-21T22:59:44.614Z,10.50
2019-03-21T23:02:28.464Z,10.72
2019-03-21T23:08:43.687Z,9.73
2019-03-21T23:11:27.949Z,8.83
2019-03-21T23:14:19.647Z,9.30
2019-03-21T23:17:03.802Z,9.65
2019-03-21T23:19:48.123Z,10.55
2019-03-21T23:22:39.867Z,10.03
2019-03-21T23:25:24.316Z,9.48
2019-03-21T23:28:16.005Z,10.93
2019-03-21T23:31:00.366Z,11.00
2019-03-21T23:33:55.039Z,10.08
2019-03-21T23:36:44.781Z,10.03
2019-03-21T23:39:36.397Z,10.55
2019-03-21T23:42:20.152Z,11.22
2019-03-21T23:45:04.883Z,11.10
2019-03-21T23:47:56.577Z,11.43
2019-03-21T23:50:40.944Z,10.30
2019-03-21T23:53:32.657Z,10.80
2019-03-21T23:56:17.121Z,10.48
2019-03-21T23:59:08.789Z,11.00
